Explorer Of The Seas — C6SE4 — position and weather

sailwx.info

Track history (hours):
 
Tides and Currents Weather Stations Pressure Air Temp Water Temp Dewpoint Dewpoint Depression Visibility Wind Speed Wind Dir Waves Ship Positions

Explorer Of The Seas

Operator: Royal Caribbean Cruises Ltd

Last reported at 2017-Jun-24 05:00 UTC. Time now 2017-Jun-24 05:20 UTC.
Position N 48°26' W 124°27'.

Length 311 m; draft 9.2 m.

Type: Passenger vessel. MMSI: 311316000.

Date/timePositionNaut miles runAvg speedWind from/ knotsBaromVisibWave heightAir tempDewpointWater temp
2017-Jun-24 05:00N 48°26' W 124°27'1322.6
2017-Jun-24 04:25N 48°21' W 124°08'921.1
2017-Jun-24 04:00N 48°17' W 123°56'1121.7
2017-Jun-24 03:30N 48°16' W 123°40'1020.8
2017-Jun-24 03:00N 48°12' W 123°25'712.8
2017-Jun-24 02:29N 48°10' W 123°16'1120.5
2017-Jun-24 01:57N 48°12' W 122°60'1020.9
2017-Jun-24 01:29N 48°10' W 122°45'918.5
2017-Jun-24 01:00N 48°03' W 122°38'1019.8
2017-Jun-24 00:30N 47°55' W 122°29'1019.3
2017-Jun-24 00:00N 47°45' W 122°27'816.3
2017-Jun-23 23:30N 47°37' W 122°24'1 1.9
2017-Jun-23 23:00N 47°38' W 122°23'0 0.0
2017-Jun-23 22:30N 47°38' W 122°23'0 0.0
2017-Jun-23 22:00N 47°38' W 122°23'0 0.0
2017-Jun-23 21:29N 47°38' W 122°23'0 0.0
2017-Jun-23 21:00N 47°38' W 122°23'0 0.0
2017-Jun-23 20:29N 47°38' W 122°23'0 0.0
2017-Jun-23 19:59N 47°38' W 122°23'0 0.0
2017-Jun-23 19:30N 47°38' W 122°23'0 0.0
2017-Jun-23 18:59N 47°38' W 122°23'0 0.0
2017-Jun-23 18:29N 47°38' W 122°23'0 0.0
2017-Jun-23 18:00N 47°38' W 122°23'0 0.0
2017-Jun-23 17:30N 47°38' W 122°23'0 0.0
2017-Jun-23 17:00N 47°38' W 122°23'0 0.0
2017-Jun-23 16:29N 47°38' W 122°23'0 0.0
2017-Jun-23 15:59N 47°38' W 122°23'0 0.0
2017-Jun-23 15:30N 47°38' W 122°23'0 0.0
2017-Jun-23 15:00N 47°38' W 122°23'0 0.0
2017-Jun-23 14:30N 47°38' W 122°23'0 0.0
2017-Jun-23 13:30N 47°38' W 122°23'0 0.0
2017-Jun-23 12:59N 47°38' W 122°23'0 0.0
2017-Jun-23 12:29N 47°38' W 122°23'1 3.0
2017-Jun-23 12:00N 47°37' W 122°25'611.5
2017-Jun-23 11:30N 47°43' W 122°27'612.9
2017-Jun-23 11:00N 47°49' W 122°28'714.1
2017-Jun-23 10:30N 47°56' W 122°32'611.9
2017-Jun-23 10:00N 48°00' W 122°38'713.6
2017-Jun-23 09:30N 48°07' W 122°41'714.5
2017-Jun-23 09:00N 48°11' W 122°50'714.5
2017-Jun-23 08:30N 48°12' W 123°01'815.8
2017-Jun-23 08:00N 48°11' W 123°13'714.2
2017-Jun-23 07:30N 48°10' W 123°23'4 8.7
2017-Jun-23 07:00N 48°12' W 123°29'4 8.8
2017-Jun-23 06:30N 48°13' W 123°35'4 7.8
2017-Jun-23 06:00N 48°14' W 123°41'3219.2
2017-Jun-23 06:00N 48°12' W 123°36'714.5 270 / 171023.4 12.0 7.9
2017-Jun-23 05:30N 48°14' W 123°46'4 7.6
2017-Jun-23 05:00N 48°14' W 123°52'3 6.8
2017-Jun-23 04:29N 48°17' W 123°54'4 7.6
2017-Jun-23 03:59N 48°17' W 123°48'4 7.9
2017-Jun-23 03:30N 48°16' W 123°43'4 8.5
2017-Jun-23 02:59N 48°15' W 123°36'4 8.1
2017-Jun-23 02:28N 48°16' W 123°30'4 8.5
2017-Jun-23 02:00N 48°19' W 123°27'4 8.3
2017-Jun-23 01:30N 48°23' W 123°24'2 0.8
2017-Jun-22 22:47N 48°25' W 123°24'0 0.0
2017-Jun-22 22:29N 48°25' W 123°24'0 0.0
2017-Jun-22 21:59N 48°25' W 123°24'0 0.0
2017-Jun-22 21:29N 48°25' W 123°24'0 0.0
2017-Jun-22 20:59N 48°25' W 123°24'0 0.0
2017-Jun-22 20:29N 48°25' W 123°24'0 0.0
2017-Jun-22 19:59N 48°25' W 123°24'0 0.0
2017-Jun-22 19:29N 48°25' W 123°24'0 0.0
2017-Jun-22 18:59N 48°25' W 123°24'0 0.0
2017-Jun-22 18:29N 48°25' W 123°24'0 0.0
2017-Jun-22 17:59N 48°25' W 123°24'0 0.0
2017-Jun-22 17:29N 48°25' W 123°24'0 0.0
2017-Jun-22 16:59N 48°25' W 123°24'0 0.0
2017-Jun-22 16:26N 48°25' W 123°24'0 0.0
2017-Jun-22 15:56N 48°25' W 123°24'0 0.0
2017-Jun-22 15:26N 48°25' W 123°24'2 4.2
2017-Jun-22 15:01N 48°23' W 123°24'611.9
2017-Jun-22 14:30N 48°17' W 123°25'1717.0
2017-Jun-22 13:30N 48°13' W 123°50'1019.2
2017-Jun-22 13:00N 48°16' W 124°04'917.3
2017-Jun-22 12:30N 48°20' W 124°16'917.0
2017-Jun-22 12:00N 48°23' W 124°27'817.0
2017-Jun-22 11:30N 48°27' W 124°39'816.4
2017-Jun-22 11:00N 48°29' W 124°51'11995.4
2017-Jun-22 11:00N 48°24' W 124°36'1939.3 090 / 51025.310.8 10.0 7.911.0
2017-Jun-22 10:30N 48°29' W 125°04'918.3
2017-Jun-22 10:00N 48°31' W 125°17'918.9
2017-Jun-22 09:30N 48°35' W 125°30'918.8
2017-Jun-22 09:01N 48°41' W 125°42'918.9
2017-Jun-22 08:30N 48°46' W 125°53'918.9
2017-Jun-22 08:00N 48°51' W 126°05'1019.1
2017-Jun-22 07:30N 48°57' W 126°17'1019.0
2017-Jun-22 07:00N 49°03' W 126°28'1018.7
2017-Jun-22 06:29N 49°09' W 126°40'34317.6
2017-Jun-21 11:00N 53°12' W 133°06'5814.5 270 / 211021.710.8 10.0 7.9 9.5
2017-Jun-21 07:00N 54°06' W 133°42'13218.9 270 / 251018.6 0.3 10.0
2017-Jun-21 00:00N 56°18' W 134°00'90 7.5 120 / 171015.710.8 9.0 6.9 9.0
2017-Jun-20 12:00N 57°48' W 133°48'6817.0 180 / 261011.010.8 10.0 7.910.0
2017-Jun-20 08:00N 58°42' W 135°06'18 0.9 160 / 151007.9 0.3 9.6 10.9
2017-Jun-19 12:00N 59°00' W 135°12'5012.6 360 / 151008.910.8 9.5 8.5 9.8
2017-Jun-19 08:00N 58°12' W 134°42'81 4.3 1010.0 0.3 10.010.0
2017-Jun-18 13:00N 56°54' W 134°00'13823.0 360 / 81019.010.8 8.0 8.0 9.0
2017-Jun-18 07:00N 54°36' W 133°54'24920.8 050 / 181018.0 0.3 10.0
2017-Jun-17 19:00N 51°06' W 130°12'7919.6 160 / 111019.0 12.0 12.0
2017-Jun-17 15:00N 50°12' W 128°42'12321.1 170 / 51019.3 11.0 12.0
2017-Jun-17 09:09N 48°55' W 126°14'520.9
2017-Jun-17 08:56N 48°52' W 126°08'920.6
2017-Jun-17 08:30N 48°48' W 125°57'1020.3
2017-Jun-17 08:01N 48°42' W 125°44'1020.4
2017-Jun-17 07:31N 48°37' W 125°31'1319.9
2017-Jun-17 06:50N 48°31' W 125°12'721.3
2017-Jun-17 06:31N 48°31' W 125°02'1121.0
2017-Jun-17 06:01N 48°31' W 124°46'918.8
2017-Jun-17 05:31N 48°28' W 124°33'1019.9
2017-Jun-17 05:01N 48°24' W 124°19'1019.9
2017-Jun-17 04:29N 48°20' W 124°04'919.5
2017-Jun-17 04:00N 48°17' W 123°51'1019.0
2017-Jun-17 03:29N 48°15' W 123°36'918.5
2017-Jun-17 02:59N 48°11' W 123°24'5 9.7
2017-Jun-17 02:30N 48°09' W 123°17'1019.0
2017-Jun-17 01:57N 48°13' W 123°03'1319.3
2017-Jun-17 01:18N 48°10' W 122°44'718.7
2017-Jun-17 00:56N 48°04' W 122°38'819.6
2017-Jun-17 00:30N 47°57' W 122°32'1020.5
2017-Jun-17 00:00N 47°48' W 122°26'1019.7
2017-Jun-16 23:30N 47°38' W 122°26'2 3.5
2017-Jun-16 22:59N 47°38' W 122°23'0 0.0
2017-Jun-16 22:29N 47°38' W 122°23'0 0.0
2017-Jun-16 21:59N 47°38' W 122°23'0 0.0
2017-Jun-16 21:29N 47°38' W 122°23'0 0.0
2017-Jun-16 20:59N 47°38' W 122°23'0 0.0
2017-Jun-16 20:29N 47°38' W 122°23'0 0.0
2017-Jun-16 19:59N 47°38' W 122°23'0 0.0
2017-Jun-16 19:29N 47°38' W 122°23'0 0.0
2017-Jun-16 18:58N 47°38' W 122°23'0 0.0
2017-Jun-16 18:28N 47°38' W 122°23'0 0.0
2017-Jun-16 17:59N 47°38' W 122°23'0 0.0
2017-Jun-16 17:29N 47°38' W 122°23'0 0.0
2017-Jun-16 16:58N 47°38' W 122°23'0 0.0
2017-Jun-16 16:28N 47°38' W 122°23'0 0.0
2017-Jun-16 15:58N 47°38' W 122°23'0 0.0
2017-Jun-16 15:28N 47°38' W 122°23'0 0.0
2017-Jun-16 14:58N 47°38' W 122°23'0 0.0
2017-Jun-16 14:29N 47°38' W 122°23'0 0.0
2017-Jun-16 13:28N 47°38' W 122°23'0 0.0
2017-Jun-16 12:58N 47°38' W 122°23'0 0.0
2017-Jun-16 12:30N 47°38' W 122°23'2 3.6
2017-Jun-16 12:00N 47°38' W 122°26'611.6
2017-Jun-16 11:30N 47°43' W 122°27'713.2
2017-Jun-16 11:00N 47°50' W 122°28'714.0
2017-Jun-16 10:30N 47°56' W 122°33'713.4
2017-Jun-16 10:00N 48°02' W 122°38'912.7
2017-Jun-16 09:17N 48°10' W 122°45'413.4
2017-Jun-16 09:00N 48°11' W 122°51'714.2
2017-Jun-16 08:29N 48°12' W 123°02'714.7
2017-Jun-16 08:00N 48°11' W 123°12'714.4
2017-Jun-16 07:30N 48°10' W 123°23'5 9.1
2017-Jun-16 07:00N 48°12' W 123°29'4 8.3
2017-Jun-16 06:30N 48°13' W 123°35'4 8.1
2017-Jun-16 06:00N 48°13' W 123°41'5 8.0
2017-Jun-16 05:23N 48°13' W 123°48'4 7.9
2017-Jun-16 04:56N 48°14' W 123°54'3 6.7
2017-Jun-16 04:30N 48°17' W 123°54'4 8.2
2017-Jun-16 03:59N 48°16' W 123°48'4 8.1
2017-Jun-16 03:29N 48°16' W 123°42'4 8.3
2017-Jun-16 03:00N 48°15' W 123°35'3515.8
2017-Jun-16 03:00N 48°12' W 123°36'610.7 310 / 161008.0 5.4 12.010.110.2
2017-Jun-16 02:27N 48°16' W 123°30'3 7.0
2017-Jun-16 02:00N 48°19' W 123°27'4 7.4
2017-Jun-16 01:30N 48°22' W 123°25'3 6.2
2017-Jun-16 01:00N 48°25' W 123°24'0 0.0
2017-Jun-16 00:27N 48°25' W 123°24'0 0.0
2017-Jun-15 23:48N 48°25' W 123°24'0 0.0
2017-Jun-15 23:27N 48°25' W 123°24'0 0.0
2017-Jun-15 23:00N 48°25' W 123°24'0 0.0
2017-Jun-15 22:27N 48°25' W 123°24'0 0.0
2017-Jun-15 22:00N 48°25' W 123°24'0 0.0
2017-Jun-15 21:30N 48°25' W 123°24'0 0.0
2017-Jun-15 20:57N 48°25' W 123°24'0 0.0
2017-Jun-15 20:30N 48°25' W 123°24'0 0.0
2017-Jun-15 20:00N 48°25' W 123°24'0 0.0
2017-Jun-15 19:30N 48°25' W 123°24'0 0.0
2017-Jun-15 19:00N 48°25' W 123°24'0 0.0
2017-Jun-15 18:30N 48°25' W 123°24'0 0.0
2017-Jun-15 18:00N 48°25' W 123°24'0 0.0
2017-Jun-15 17:30N 48°25' W 123°24'0 0.0
2017-Jun-15 17:00N 48°25' W 123°24'0 0.0
2017-Jun-15 16:30N 48°25' W 123°24'0 0.0
2017-Jun-15 16:00N 48°25' W 123°24'0 0.1
2017-Jun-15 15:30N 48°25' W 123°24'1 2.5
2017-Jun-15 15:01N 48°24' W 123°24'1212.4
2017-Jun-15 14:00N 48°13' W 123°34'816.9
2017-Jun-15 13:30N 48°13' W 123°47'916.9
2017-Jun-15 12:59N 48°15' W 123°60'917.9
2017-Jun-15 12:30N 48°19' W 124°12'917.9
2017-Jun-15 12:00N 48°22' W 124°24'917.8
2017-Jun-15 11:30N 48°26' W 124°36'917.5
2017-Jun-15 11:00N 48°29' W 124°48'9583.5
2017-Jun-15 11:00N 48°24' W 124°36'2229.3 120 / 151010.0 5.4 10.0 7.910.0
2017-Jun-15 10:14N 48°29' W 125°09'516.4
2017-Jun-15 09:55N 48°29' W 125°16'716.8
2017-Jun-15 09:30N 48°33' W 125°25'917.1
2017-Jun-15 09:00N 48°38' W 125°36'816.8
2017-Jun-15 08:30N 48°43' W 125°46'816.8
2017-Jun-15 08:00N 48°47' W 125°57'816.8
2017-Jun-15 07:30N 48°52' W 126°07'816.8
2017-Jun-15 07:00N 48°57' W 126°17'816.8
2017-Jun-15 06:30N 49°02' W 126°28'917.2
2017-Jun-15 06:00N 49°07' W 126°38'917.2
2017-Jun-15 05:30N 49°13' W 126°49'917.0
2017-Jun-15 05:00N 49°18' W 126°59'3015.0
2017-Jun-15 03:00N 49°36' W 127°36'7218.1 140 / 281012.0 5.4 10.5 9.511.8
2017-Jun-14 23:00N 50°24' W 129°00'7217.9 190 / 241011.0 5.4 12.012.010.0
2017-Jun-14 19:00N 51°12' W 130°24'10125.2 200 / 281009.0 5.4 11.010.011.5
2017-Jun-14 15:00N 52°24' W 132°18'5814.5 180 / 271006.0 5.4 9.0 9.011.0
2017-Jun-14 11:00N 53°12' W 133°12'5719.0 100 / 211007.0 5.4 8.0 5.810.0
2017-Jun-14 08:00N 54°06' W 133°42'   090 / 201010.0 5.4 9.0 6.910.0
Track history (hours):
 
Tides and Currents Weather Stations Pressure Air Temp Water Temp Dewpoint Dewpoint Depression Visibility Wind Speed Wind Dir Waves Ship Positions

Explorer Of The Seas

Operator: Royal Caribbean Cruises Ltd

Last reported at 2017-Jun-24 05:00 UTC. Time now 2017-Jun-24 05:20 UTC.
Position N 48°26' W 124°27'.

Length 311 m; draft 9.2 m.

Type: Passenger vessel. MMSI: 311316000.

Date/timePositionNaut miles runAvg speedWind from/ knotsBaromVisibWave heightAir tempDewpointWater temp
2017-Jun-24 05:00N 48°26' W 124°27'1322.6
2017-Jun-24 04:25N 48°21' W 124°08'921.1
2017-Jun-24 04:00N 48°17' W 123°56'1121.7
2017-Jun-24 03:30N 48°16' W 123°40'1020.8
2017-Jun-24 03:00N 48°12' W 123°25'712.8
2017-Jun-24 02:29N 48°10' W 123°16'1120.5
2017-Jun-24 01:57N 48°12' W 122°60'1020.9
2017-Jun-24 01:29N 48°10' W 122°45'918.5
2017-Jun-24 01:00N 48°03' W 122°38'1019.8
2017-Jun-24 00:30N 47°55' W 122°29'1019.3
2017-Jun-24 00:00N 47°45' W 122°27'816.3
2017-Jun-23 23:30N 47°37' W 122°24'1 1.9
2017-Jun-23 23:00N 47°38' W 122°23'0 0.0
2017-Jun-23 22:30N 47°38' W 122°23'0 0.0
2017-Jun-23 22:00N 47°38' W 122°23'0 0.0
2017-Jun-23 21:29N 47°38' W 122°23'0 0.0
2017-Jun-23 21:00N 47°38' W 122°23'0 0.0
2017-Jun-23 20:29N 47°38' W 122°23'0 0.0
2017-Jun-23 19:59N 47°38' W 122°23'0 0.0
2017-Jun-23 19:30N 47°38' W 122°23'0 0.0
2017-Jun-23 18:59N 47°38' W 122°23'0 0.0
2017-Jun-23 18:29N 47°38' W 122°23'0 0.0
2017-Jun-23 18:00N 47°38' W 122°23'0 0.0
2017-Jun-23 17:30N 47°38' W 122°23'0 0.0
2017-Jun-23 17:00N 47°38' W 122°23'0 0.0
2017-Jun-23 16:29N 47°38' W 122°23'0 0.0
2017-Jun-23 15:59N 47°38' W 122°23'0 0.0
2017-Jun-23 15:30N 47°38' W 122°23'0 0.0
2017-Jun-23 15:00N 47°38' W 122°23'0 0.0
2017-Jun-23 14:30N 47°38' W 122°23'0 0.0
2017-Jun-23 13:30N 47°38' W 122°23'0 0.0
2017-Jun-23 12:59N 47°38' W 122°23'0 0.0
2017-Jun-23 12:29N 47°38' W 122°23'1 3.0
2017-Jun-23 12:00N 47°37' W 122°25'611.5
2017-Jun-23 11:30N 47°43' W 122°27'612.9
2017-Jun-23 11:00N 47°49' W 122°28'714.1
2017-Jun-23 10:30N 47°56' W 122°32'611.9
2017-Jun-23 10:00N 48°00' W 122°38'713.6
2017-Jun-23 09:30N 48°07' W 122°41'714.5
2017-Jun-23 09:00N 48°11' W 122°50'714.5
2017-Jun-23 08:30N 48°12' W 123°01'815.8
2017-Jun-23 08:00N 48°11' W 123°13'714.2
2017-Jun-23 07:30N 48°10' W 123°23'4 8.7
2017-Jun-23 07:00N 48°12' W 123°29'4 8.8
2017-Jun-23 06:30N 48°13' W 123°35'4 7.8
2017-Jun-23 06:00N 48°14' W 123°41'3219.2
2017-Jun-23 06:00N 48°12' W 123°36'714.5 270 / 171023.4 12.0 7.9
2017-Jun-23 05:30N 48°14' W 123°46'4 7.6
2017-Jun-23 05:00N 48°14' W 123°52'3 6.8
2017-Jun-23 04:29N 48°17' W 123°54'4 7.6
2017-Jun-23 03:59N 48°17' W 123°48'4 7.9
2017-Jun-23 03:30N 48°16' W 123°43'4 8.5
2017-Jun-23 02:59N 48°15' W 123°36'4 8.1
2017-Jun-23 02:28N 48°16' W 123°30'4 8.5
2017-Jun-23 02:00N 48°19' W 123°27'4 8.3
2017-Jun-23 01:30N 48°23' W 123°24'2 0.8
2017-Jun-22 22:47N 48°25' W 123°24'0 0.0
2017-Jun-22 22:29N 48°25' W 123°24'0 0.0
2017-Jun-22 21:59N 48°25' W 123°24'0 0.0
2017-Jun-22 21:29N 48°25' W 123°24'0 0.0
2017-Jun-22 20:59N 48°25' W 123°24'0 0.0
2017-Jun-22 20:29N 48°25' W 123°24'0 0.0
2017-Jun-22 19:59N 48°25' W 123°24'0 0.0
2017-Jun-22 19:29N 48°25' W 123°24'0 0.0
2017-Jun-22 18:59N 48°25' W 123°24'0 0.0
2017-Jun-22 18:29N 48°25' W 123°24'0 0.0
2017-Jun-22 17:59N 48°25' W 123°24'0 0.0
2017-Jun-22 17:29N 48°25' W 123°24'0 0.0
2017-Jun-22 16:59N 48°25' W 123°24'0 0.0
2017-Jun-22 16:26N 48°25' W 123°24'0 0.0
2017-Jun-22 15:56N 48°25' W 123°24'0 0.0
2017-Jun-22 15:26N 48°25' W 123°24'2 4.2
2017-Jun-22 15:01N 48°23' W 123°24'611.9
2017-Jun-22 14:30N 48°17' W 123°25'1717.0
2017-Jun-22 13:30N 48°13' W 123°50'1019.2
2017-Jun-22 13:00N 48°16' W 124°04'917.3
2017-Jun-22 12:30N 48°20' W 124°16'917.0
2017-Jun-22 12:00N 48°23' W 124°27'817.0
2017-Jun-22 11:30N 48°27' W 124°39'816.4
2017-Jun-22 11:00N 48°29' W 124°51'11995.4
2017-Jun-22 11:00N 48°24' W 124°36'1939.3 090 / 51025.310.8 10.0 7.911.0
2017-Jun-22 10:30N 48°29' W 125°04'918.3
2017-Jun-22 10:00N 48°31' W 125°17'918.9
2017-Jun-22 09:30N 48°35' W 125°30'918.8
2017-Jun-22 09:01N 48°41' W 125°42'918.9
2017-Jun-22 08:30N 48°46' W 125°53'918.9
2017-Jun-22 08:00N 48°51' W 126°05'1019.1
2017-Jun-22 07:30N 48°57' W 126°17'1019.0
2017-Jun-22 07:00N 49°03' W 126°28'1018.7
2017-Jun-22 06:29N 49°09' W 126°40'34317.6
2017-Jun-21 11:00N 53°12' W 133°06'5814.5 270 / 211021.710.8 10.0 7.9 9.5
2017-Jun-21 07:00N 54°06' W 133°42'13218.9 270 / 251018.6 0.3 10.0
2017-Jun-21 00:00N 56°18' W 134°00'90 7.5 120 / 171015.710.8 9.0 6.9 9.0
2017-Jun-20 12:00N 57°48' W 133°48'6817.0 180 / 261011.010.8 10.0 7.910.0
2017-Jun-20 08:00N 58°42' W 135°06'18 0.9 160 / 151007.9 0.3 9.6 10.9
2017-Jun-19 12:00N 59°00' W 135°12'5012.6 360 / 151008.910.8 9.5 8.5 9.8
2017-Jun-19 08:00N 58°12' W 134°42'81 4.3 1010.0 0.3 10.010.0
2017-Jun-18 13:00N 56°54' W 134°00'13823.0 360 / 81019.010.8 8.0 8.0 9.0
2017-Jun-18 07:00N 54°36' W 133°54'24920.8 050 / 181018.0 0.3 10.0
2017-Jun-17 19:00N 51°06' W 130°12'7919.6 160 / 111019.0 12.0 12.0
2017-Jun-17 15:00N 50°12' W 128°42'12321.1 170 / 51019.3 11.0 12.0
2017-Jun-17 09:09N 48°55' W 126°14'520.9
2017-Jun-17 08:56N 48°52' W 126°08'920.6
2017-Jun-17 08:30N 48°48' W 125°57'1020.3
2017-Jun-17 08:01N 48°42' W 125°44'1020.4
2017-Jun-17 07:31N 48°37' W 125°31'1319.9
2017-Jun-17 06:50N 48°31' W 125°12'721.3
2017-Jun-17 06:31N 48°31' W 125°02'1121.0
2017-Jun-17 06:01N 48°31' W 124°46'918.8
2017-Jun-17 05:31N 48°28' W 124°33'1019.9
2017-Jun-17 05:01N 48°24' W 124°19'1019.9
2017-Jun-17 04:29N 48°20' W 124°04'919.5
2017-Jun-17 04:00N 48°17' W 123°51'1019.0
2017-Jun-17 03:29N 48°15' W 123°36'918.5
2017-Jun-17 02:59N 48°11' W 123°24'5 9.7
2017-Jun-17 02:30N 48°09' W 123°17'1019.0
2017-Jun-17 01:57N 48°13' W 123°03'1319.3
2017-Jun-17 01:18N 48°10' W 122°44'718.7
2017-Jun-17 00:56N 48°04' W 122°38'819.6
2017-Jun-17 00:30N 47°57' W 122°32'1020.5
2017-Jun-17 00:00N 47°48' W 122°26'1019.7
2017-Jun-16 23:30N 47°38' W 122°26'2 3.5
2017-Jun-16 22:59N 47°38' W 122°23'0 0.0
2017-Jun-16 22:29N 47°38' W 122°23'0 0.0
2017-Jun-16 21:59N 47°38' W 122°23'0 0.0
2017-Jun-16 21:29N 47°38' W 122°23'0 0.0
2017-Jun-16 20:59N 47°38' W 122°23'0 0.0
2017-Jun-16 20:29N 47°38' W 122°23'0 0.0
2017-Jun-16 19:59N 47°38' W 122°23'0 0.0
2017-Jun-16 19:29N 47°38' W 122°23'0 0.0
2017-Jun-16 18:58N 47°38' W 122°23'0 0.0
2017-Jun-16 18:28N 47°38' W 122°23'0 0.0
2017-Jun-16 17:59N 47°38' W 122°23'0 0.0
2017-Jun-16 17:29N 47°38' W 122°23'0 0.0
2017-Jun-16 16:58N 47°38' W 122°23'0 0.0
2017-Jun-16 16:28N 47°38' W 122°23'0 0.0
2017-Jun-16 15:58N 47°38' W 122°23'0 0.0
2017-Jun-16 15:28N 47°38' W 122°23'0 0.0
2017-Jun-16 14:58N 47°38' W 122°23'0 0.0
2017-Jun-16 14:29N 47°38' W 122°23'0 0.0
2017-Jun-16 13:28N 47°38' W 122°23'0 0.0
2017-Jun-16 12:58N 47°38' W 122°23'0 0.0
2017-Jun-16 12:30N 47°38' W 122°23'2 3.6
2017-Jun-16 12:00N 47°38' W 122°26'611.6
2017-Jun-16 11:30N 47°43' W 122°27'713.2
2017-Jun-16 11:00N 47°50' W 122°28'714.0
2017-Jun-16 10:30N 47°56' W 122°33'713.4
2017-Jun-16 10:00N 48°02' W 122°38'912.7
2017-Jun-16 09:17N 48°10' W 122°45'413.4
2017-Jun-16 09:00N 48°11' W 122°51'714.2
2017-Jun-16 08:29N 48°12' W 123°02'714.7
2017-Jun-16 08:00N 48°11' W 123°12'714.4
2017-Jun-16 07:30N 48°10' W 123°23'5 9.1
2017-Jun-16 07:00N 48°12' W 123°29'4 8.3
2017-Jun-16 06:30N 48°13' W 123°35'4 8.1
2017-Jun-16 06:00N 48°13' W 123°41'5 8.0
2017-Jun-16 05:23N 48°13' W 123°48'4 7.9
2017-Jun-16 04:56N 48°14' W 123°54'3 6.7
2017-Jun-16 04:30N 48°17' W 123°54'4 8.2
2017-Jun-16 03:59N 48°16' W 123°48'4 8.1
2017-Jun-16 03:29N 48°16' W 123°42'4 8.3
2017-Jun-16 03:00N 48°15' W 123°35'3515.8
2017-Jun-16 03:00N 48°12' W 123°36'610.7 310 / 161008.0 5.4 12.010.110.2
2017-Jun-16 02:27N 48°16' W 123°30'3 7.0
2017-Jun-16 02:00N 48°19' W 123°27'4 7.4
2017-Jun-16 01:30N 48°22' W 123°25'3 6.2
2017-Jun-16 01:00N 48°25' W 123°24'0 0.0
2017-Jun-16 00:27N 48°25' W 123°24'0 0.0
2017-Jun-15 23:48N 48°25' W 123°24'0 0.0
2017-Jun-15 23:27N 48°25' W 123°24'0 0.0
2017-Jun-15 23:00N 48°25' W 123°24'0 0.0
2017-Jun-15 22:27N 48°25' W 123°24'0 0.0
2017-Jun-15 22:00N 48°25' W 123°24'0 0.0
2017-Jun-15 21:30N 48°25' W 123°24'0 0.0
2017-Jun-15 20:57N 48°25' W 123°24'0 0.0
2017-Jun-15 20:30N 48°25' W 123°24'0 0.0
2017-Jun-15 20:00N 48°25' W 123°24'0 0.0
2017-Jun-15 19:30N 48°25' W 123°24'0 0.0
2017-Jun-15 19:00N 48°25' W 123°24'0 0.0
2017-Jun-15 18:30N 48°25' W 123°24'0 0.0
2017-Jun-15 18:00N 48°25' W 123°24'0 0.0
2017-Jun-15 17:30N 48°25' W 123°24'0 0.0
2017-Jun-15 17:00N 48°25' W 123°24'0 0.0
2017-Jun-15 16:30N 48°25' W 123°24'0 0.0
2017-Jun-15 16:00N 48°25' W 123°24'0 0.1
2017-Jun-15 15:30N 48°25' W 123°24'1 2.5
2017-Jun-15 15:01N 48°24' W 123°24'1212.4
2017-Jun-15 14:00N 48°13' W 123°34'816.9
2017-Jun-15 13:30N 48°13' W 123°47'916.9
2017-Jun-15 12:59N 48°15' W 123°60'917.9
2017-Jun-15 12:30N 48°19' W 124°12'917.9
2017-Jun-15 12:00N 48°22' W 124°24'917.8
2017-Jun-15 11:30N 48°26' W 124°36'917.5
2017-Jun-15 11:00N 48°29' W 124°48'9583.5
2017-Jun-15 11:00N 48°24' W 124°36'2229.3 120 / 151010.0 5.4 10.0 7.910.0
2017-Jun-15 10:14N 48°29' W 125°09'516.4
2017-Jun-15 09:55N 48°29' W 125°16'716.8
2017-Jun-15 09:30N 48°33' W 125°25'917.1
2017-Jun-15 09:00N 48°38' W 125°36'816.8
2017-Jun-15 08:30N 48°43' W 125°46'816.8
2017-Jun-15 08:00N 48°47' W 125°57'816.8
2017-Jun-15 07:30N 48°52' W 126°07'816.8
2017-Jun-15 07:00N 48°57' W 126°17'816.8
2017-Jun-15 06:30N 49°02' W 126°28'917.2
2017-Jun-15 06:00N 49°07' W 126°38'917.2
2017-Jun-15 05:30N 49°13' W 126°49'917.0
2017-Jun-15 05:00N 49°18' W 126°59'3015.0
2017-Jun-15 03:00N 49°36' W 127°36'7218.1 140 / 281012.0 5.4 10.5 9.511.8
2017-Jun-14 23:00N 50°24' W 129°00'7217.9 190 / 241011.0 5.4 12.012.010.0
2017-Jun-14 19:00N 51°12' W 130°24'10125.2 200 / 281009.0 5.4 11.010.011.5
2017-Jun-14 15:00N 52°24' W 132°18'5814.5 180 / 271006.0 5.4 9.0 9.011.0
2017-Jun-14 11:00N 53°12' W 133°12'5719.0 100 / 211007.0 5.4 8.0 5.810.0
2017-Jun-14 08:00N 54°06' W 133°42'   090 / 201010.0 5.4 9.0 6.910.0

Dump ship's entire track history